createdAt,value
2022-11-24T00:00:25.419Z,1.99
2022-11-24T00:02:56.481Z,1.88
2022-11-24T00:05:27.789Z,1.81
2022-11-24T00:07:58.374Z,1.94
2022-11-24T00:10:28.961Z,1.88
2022-11-24T00:12:59.536Z,1.89
2022-11-24T00:15:30.104Z,1.82
2022-11-24T00:18:02.107Z,1.93
2022-11-24T00:20:33.739Z,1.80
2022-11-24T00:23:04.361Z,1.86
2022-11-24T00:25:37.145Z,1.95
2022-11-24T00:28:09.383Z,1.85
2022-11-24T00:30:39.956Z,1.95
2022-11-24T00:33:10.755Z,2.01
2022-11-24T00:35:41.727Z,2.08
2022-11-24T00:38:12.255Z,1.97
2022-11-24T00:40:44.329Z,1.91
2022-11-24T00:43:14.975Z,1.96
2022-11-24T00:45:45.678Z,1.84
2022-11-24T00:48:16.941Z,1.88
2022-11-24T00:51:00.772Z,1.82
2022-11-24T00:53:33.506Z,1.84
2022-11-24T00:56:04.351Z,1.92
2022-11-24T00:58:35.329Z,1.86
2022-11-24T01:01:17.633Z,1.94
2022-11-24T01:03:48.754Z,1.94
2022-11-24T01:06:21.481Z,1.87
2022-11-24T01:08:52.851Z,1.88
2022-11-24T01:11:29.564Z,1.98
2022-11-24T01:14:00.706Z,2.00
2022-11-24T01:16:34.687Z,2.08
2022-11-24T01:19:05.185Z,1.94
2022-11-24T01:21:35.678Z,1.95
2022-11-24T01:24:06.859Z,1.92
2022-11-24T01:26:37.494Z,1.90
2022-11-24T01:29:08.182Z,1.96
2022-11-24T01:31:38.991Z,1.77
2022-11-24T01:34:09.728Z,1.80
2022-11-24T01:36:40.678Z,1.78
2022-11-24T01:39:11.223Z,1.74
2022-11-24T01:41:41.898Z,1.69
2022-11-24T01:44:23.975Z,1.62
2022-11-24T01:47:00.661Z,1.76
2022-11-24T01:49:52.082Z,1.85
2022-11-24T01:52:39.338Z,1.86
2022-11-24T01:55:13.062Z,1.90
2022-11-24T01:57:46.609Z,1.96
2022-11-24T02:00:18.880Z,2.05
2022-11-24T02:02:49.422Z,2.14
2022-11-24T02:05:38.756Z,2.06
2022-11-24T02:08:05.018Z,1.92
2022-11-24T02:10:35.954Z,1.84
2022-11-24T02:13:07.521Z,1.86
2022-11-24T02:15:38.119Z,1.83
2022-11-24T02:18:10.379Z,1.83
2022-11-24T02:20:41.012Z,1.82
2022-11-24T02:23:26.643Z,1.89
2022-11-24T02:26:18.963Z,1.81
2022-11-24T02:28:50.954Z,1.64
2022-11-24T02:31:22.343Z,1.62
2022-11-24T02:33:54.793Z,1.54
2022-11-24T02:36:26.489Z,1.43
2022-11-24T02:38:57.400Z,1.38
2022-11-24T02:41:29.861Z,1.26
2022-11-24T02:44:02.413Z,1.29
2022-11-24T02:46:32.957Z,1.34
2022-11-24T02:49:03.417Z,1.38
2022-11-24T02:51:34.634Z,1.36
2022-11-24T02:54:05.203Z,1.38
2022-11-24T02:56:35.701Z,1.34
2022-11-24T02:59:06.329Z,1.28
2022-11-24T03:01:36.906Z,1.42
2022-11-24T03:04:07.694Z,1.36
2022-11-24T03:06:38.406Z,1.34
2022-11-24T03:09:08.996Z,1.44
2022-11-24T03:11:40.174Z,1.49
2022-11-24T03:14:12.516Z,1.54
2022-11-24T03:16:44.122Z,1.50
2022-11-24T03:19:14.896Z,1.60
2022-11-24T03:21:45.741Z,1.56
2022-11-24T03:24:16.343Z,1.59
2022-11-24T03:26:46.902Z,1.37
2022-11-24T03:29:17.897Z,1.32
2022-11-24T03:31:48.368Z,1.48
2022-11-24T03:34:18.961Z,1.50
2022-11-24T03:36:49.627Z,1.43
2022-11-24T03:39:20.136Z,1.43
2022-11-24T03:41:54.475Z,1.38
2022-11-24T03:44:26.195Z,1.38
2022-11-24T03:46:56.661Z,1.32
2022-11-24T03:49:27.440Z,1.36
2022-11-24T03:51:58.078Z,1.48
2022-11-24T03:54:29.965Z,1.30
2022-11-24T03:57:00.667Z,1.40
2022-11-24T03:59:31.088Z,1.44
2022-11-24T04:02:01.627Z,1.46
2022-11-24T04:04:32.808Z,1.23
2022-11-24T04:07:04.814Z,1.32
2022-11-24T04:09:35.488Z,1.42
2022-11-24T04:12:24.378Z,1.27
2022-11-24T04:14:55.056Z,1.25
2022-11-24T04:17:25.620Z,1.26
2022-11-24T04:19:56.252Z,1.27
2022-11-24T04:22:26.985Z,1.34
2022-11-24T04:24:57.573Z,1.21
2022-11-24T04:27:28.044Z,1.26
2022-11-24T04:29:58.563Z,1.22
2022-11-24T04:32:29.223Z,1.34
2022-11-24T04:34:59.864Z,1.26
2022-11-24T04:37:30.491Z,1.27
2022-11-24T04:40:01.132Z,1.38
2022-11-24T04:42:31.658Z,1.40
2022-11-24T04:45:02.558Z,1.47
2022-11-24T04:47:33.500Z,1.54
2022-11-24T04:50:04.954Z,1.48
2022-11-24T04:52:35.438Z,1.36
2022-11-24T04:55:06.319Z,1.42
2022-11-24T04:57:36.774Z,1.34
2022-11-24T05:00:09.336Z,1.53
2022-11-24T05:02:40.126Z,1.56
2022-11-24T05:05:12.142Z,1.68
2022-11-24T05:07:42.901Z,1.64
2022-11-24T05:10:31.335Z,1.44
2022-11-24T05:13:03.538Z,1.28
2022-11-24T05:15:34.407Z,1.20
2022-11-24T05:18:11.179Z,1.24
2022-11-24T05:20:45.159Z,1.24
2022-11-24T05:23:16.043Z,1.22
2022-11-24T05:25:48.097Z,1.38
2022-11-24T05:28:19.626Z,1.45
2022-11-24T05:30:52.301Z,1.48
2022-11-24T05:33:23.264Z,1.36
2022-11-24T05:35:54.346Z,1.28
2022-11-24T05:38:26.520Z,1.36
2022-11-24T05:41:05.173Z,1.42
2022-11-24T05:43:36.199Z,1.30
2022-11-24T05:46:06.841Z,1.26
2022-11-24T05:48:38.525Z,1.26
2022-11-24T05:51:09.517Z,1.22
2022-11-24T05:53:40.265Z,1.28
2022-11-24T05:56:10.674Z,1.28
2022-11-24T05:58:41.232Z,1.20
2022-11-24T06:01:11.773Z,1.30
2022-11-24T06:03:42.445Z,1.20
2022-11-24T06:06:16.843Z,1.13
2022-11-24T06:08:49.164Z,1.32
2022-11-24T06:11:19.654Z,1.37
2022-11-24T06:13:50.445Z,1.46
2022-11-24T06:16:21.133Z,1.42
2022-11-24T06:18:51.873Z,1.36
2022-11-24T06:21:22.663Z,1.23
2022-11-24T06:23:54.707Z,1.18
2022-11-24T06:26:25.567Z,1.25
2022-11-24T06:28:57.579Z,1.26
2022-11-24T06:31:29.534Z,1.37
2022-11-24T06:34:02.519Z,1.53
2022-11-24T06:36:33.997Z,1.52
2022-11-24T06:39:05.837Z,1.39
2022-11-24T06:41:37.135Z,1.44
2022-11-24T06:44:08.670Z,1.68
2022-11-24T06:46:39.175Z,1.60
2022-11-24T06:49:10.931Z,1.62
2022-11-24T06:51:43.128Z,1.33
2022-11-24T06:54:21.426Z,1.31
2022-11-24T06:56:54.982Z,1.30
2022-11-24T06:59:26.631Z,1.41
2022-11-24T07:01:57.765Z,1.35
2022-11-24T07:04:28.397Z,1.40
2022-11-24T07:07:00.029Z,1.48
2022-11-24T07:09:30.458Z,1.48
2022-11-24T07:12:02.358Z,1.58
2022-11-24T07:14:33.734Z,1.64
2022-11-24T07:17:05.267Z,1.80
2022-11-24T07:19:35.808Z,1.70
2022-11-24T07:22:06.301Z,1.61
2022-11-24T07:24:37.406Z,1.59
2022-11-24T07:27:08.003Z,1.62
2022-11-24T07:29:38.547Z,1.80
2022-11-24T07:32:09.295Z,1.83
2022-11-24T07:34:39.912Z,1.76
2022-11-24T07:37:10.375Z,1.58
2022-11-24T07:39:41.069Z,1.82
2022-11-24T07:42:11.597Z,1.87
2022-11-24T07:44:42.216Z,1.72
2022-11-24T07:47:12.765Z,1.88
2022-11-24T07:49:43.450Z,1.88
2022-11-24T07:52:13.959Z,1.90
2022-11-24T07:54:44.533Z,1.94
2022-11-24T07:57:14.935Z,2.06
2022-11-24T07:59:45.411Z,1.96
2022-11-24T08:02:15.864Z,2.00
2022-11-24T08:04:46.601Z,1.94
2022-11-24T08:07:17.476Z,1.94
2022-11-24T08:09:49.814Z,2.10
2022-11-24T08:12:23.926Z,1.96
2022-11-24T08:14:57.247Z,2.17
2022-11-24T08:17:29.831Z,2.05
2022-11-24T08:20:00.383Z,1.84
2022-11-24T08:22:30.820Z,1.78
2022-11-24T08:25:01.184Z,1.90
2022-11-24T08:27:31.716Z,1.87
2022-11-24T08:30:02.194Z,2.05
2022-11-24T08:32:32.971Z,2.28
2022-11-24T08:35:18.406Z,2.34
2022-11-24T08:37:35.587Z,2.32
2022-11-24T08:40:08.421Z,2.26
2022-11-24T08:42:39.941Z,2.52
2022-11-24T08:45:20.832Z,2.46
2022-11-24T08:47:44.997Z,2.35
2022-11-24T08:50:15.495Z,2.27
2022-11-24T08:52:46.087Z,2.42
2022-11-24T08:55:19.587Z,2.57
2022-11-24T08:57:49.998Z,2.37
2022-11-24T09:00:23.748Z,2.49
2022-11-24T09:02:58.741Z,2.57
2022-11-24T09:05:51.310Z,2.60
2022-11-24T09:08:01.516Z,2.71
2022-11-24T09:10:33.147Z,2.97
2022-11-24T09:13:03.896Z,3.02
2022-11-24T09:15:37.812Z,3.22
2022-11-24T09:18:08.636Z,3.20
2022-11-24T09:20:41.091Z,3.19
2022-11-24T09:23:11.605Z,3.36
2022-11-24T09:25:42.291Z,2.88
2022-11-24T09:28:15.871Z,2.90
2022-11-24T09:30:46.411Z,2.75
2022-11-24T09:33:18.766Z,2.84
2022-11-24T09:35:52.594Z,2.81
2022-11-24T09:38:24.159Z,2.89
2022-11-24T09:40:58.084Z,3.02
2022-11-24T09:43:43.511Z,3.04
2022-11-24T09:46:23.284Z,3.14
2022-11-24T09:48:56.875Z,3.44
2022-11-24T09:51:30.495Z,3.48
2022-11-24T09:54:16.389Z,3.30
2022-11-24T09:56:51.296Z,3.59
2022-11-24T09:59:24.059Z,3.82
2022-11-24T10:01:56.616Z,3.74
2022-11-24T10:04:43.858Z,3.32
2022-11-24T10:07:18.723Z,3.25
2022-11-24T10:10:13.193Z,3.44
2022-11-24T10:13:04.072Z,3.34
2022-11-24T10:15:43.959Z,3.28
2022-11-24T10:18:33.323Z,3.28
2022-11-24T10:21:06.832Z,3.32
2022-11-24T10:24:12.412Z,3.56
2022-11-24T10:26:46.907Z,3.57
2022-11-24T10:29:23.031Z,4.05
2022-11-24T10:31:57.826Z,4.00
2022-11-24T10:34:31.386Z,4.10
2022-11-24T10:37:10.858Z,4.28
2022-11-24T10:40:04.176Z,4.32
2022-11-24T10:42:40.122Z,4.68
2022-11-24T10:45:16.512Z,4.56
2022-11-24T10:47:55.012Z,4.74
2022-11-24T10:50:31.325Z,4.75
2022-11-24T10:53:28.762Z,4.77
2022-11-24T10:56:02.754Z,4.64
2022-11-24T10:58:38.232Z,4.42
2022-11-24T11:01:17.922Z,4.32
2022-11-24T11:03:54.724Z,4.62
2022-11-24T11:06:28.051Z,4.82
2022-11-24T11:09:18.122Z,4.72
2022-11-24T11:11:49.744Z,4.70
2022-11-24T11:14:38.186Z,4.92
2022-11-24T11:17:35.131Z,4.90
2022-11-24T11:20:09.022Z,4.67
2022-11-24T11:22:40.179Z,4.86
2022-11-24T11:25:16.913Z,5.06
2022-11-24T11:27:48.478Z,5.21
2022-11-24T11:35:37.214Z,5.67
2022-11-24T11:38:09.037Z,5.42
2022-11-24T11:40:42.746Z,5.78
2022-11-24T11:43:32.969Z,5.64
2022-11-24T11:46:12.567Z,4.97
2022-11-24T11:48:48.693Z,4.90
2022-11-24T11:51:51.778Z,4.84
2022-11-24T11:54:49.814Z,4.99
2022-11-24T11:57:34.447Z,5.02
2022-11-24T12:00:07.894Z,5.10
2022-11-24T12:02:57.570Z,4.98
2022-11-24T12:06:00.073Z,5.20
2022-11-24T12:09:18.609Z,5.44
2022-11-24T12:11:27.200Z,5.13
2022-11-24T12:14:29.427Z,5.29
2022-11-24T12:17:02.163Z,5.33
2022-11-24T12:19:52.047Z,5.47
2022-11-24T12:22:34.707Z,5.80
2022-11-24T12:25:17.477Z,5.64
2022-11-24T12:28:10.446Z,5.58
2022-11-24T12:30:46.715Z,5.55
2022-11-24T12:33:50.585Z,5.76
2022-11-24T12:36:36.915Z,5.92
2022-11-24T12:39:19.126Z,5.88
2022-11-24T12:42:10.958Z,6.14
2022-11-24T12:44:53.619Z,6.00
2022-11-24T12:47:43.628Z,6.13
2022-11-24T12:50:23.001Z,6.04
2022-11-24T12:53:00.981Z,6.13
2022-11-24T12:55:34.828Z,6.28
2022-11-24T12:58:32.503Z,6.29
2022-11-24T13:01:14.638Z,5.96
2022-11-24T13:04:00.145Z,5.88
2022-11-24T13:06:36.856Z,5.88
2022-11-24T13:09:12.448Z,6.06
2022-11-24T13:12:03.302Z,6.00
2022-11-24T13:14:40.116Z,5.70
2022-11-24T13:17:53.981Z,5.72
2022-11-24T13:20:23.382Z,5.70
2022-11-24T13:22:59.243Z,5.78
2022-11-24T13:25:33.837Z,5.78
2022-11-24T13:28:07.423Z,5.64
2022-11-24T13:30:49.789Z,6.06
2022-11-24T13:33:32.547Z,5.78
2022-11-24T13:36:12.871Z,5.65
2022-11-24T13:38:47.021Z,5.56
2022-11-24T13:41:39.221Z,5.46
2022-11-24T13:44:25.285Z,5.66
2022-11-24T13:47:05.592Z,5.84
2022-11-24T13:49:46.795Z,5.99
2022-11-24T13:52:42.974Z,6.12
2022-11-24T13:55:16.731Z,6.16
2022-11-24T13:57:54.190Z,6.26
2022-11-24T14:00:30.898Z,6.19
2022-11-24T14:03:08.229Z,6.26
2022-11-24T14:05:42.627Z,6.33
2022-11-24T14:08:16.263Z,6.40
2022-11-24T14:10:47.450Z,6.39
2022-11-24T14:13:35.278Z,6.26
2022-11-24T14:16:12.316Z,6.42
2022-11-24T14:18:49.723Z,6.18
2022-11-24T14:21:29.293Z,6.24
2022-11-24T14:24:11.426Z,6.32
2022-11-24T14:26:42.699Z,6.36
2022-11-24T14:29:15.720Z,6.06
2022-11-24T14:31:55.993Z,5.94
2022-11-24T14:34:30.367Z,5.64
2022-11-24T14:37:03.229Z,5.62
2022-11-24T14:39:38.141Z,5.65
2022-11-24T14:42:20.812Z,5.68
2022-11-24T14:44:58.541Z,5.47
2022-11-24T14:47:40.971Z,5.46
2022-11-24T14:50:19.293Z,5.47
2022-11-24T14:52:57.568Z,5.43
2022-11-24T14:55:32.938Z,5.45
2022-11-24T14:58:05.405Z,5.50
2022-11-24T15:00:36.062Z,5.45
2022-11-24T15:03:09.743Z,5.46
2022-11-24T15:06:00.562Z,5.46
2022-11-24T15:08:37.023Z,5.58
2022-11-24T15:11:08.501Z,5.52
2022-11-24T15:13:40.402Z,5.52
2022-11-24T15:16:21.499Z,5.53
2022-11-24T15:19:01.158Z,5.66
2022-11-24T15:21:38.611Z,5.54
2022-11-24T15:24:18.023Z,5.57
2022-11-24T15:26:48.819Z,5.74
2022-11-24T15:29:19.753Z,5.64
2022-11-24T15:31:52.775Z,5.64
2022-11-24T15:34:22.447Z,5.49
2022-11-24T15:36:53.099Z,5.44
2022-11-24T15:39:23.711Z,5.40
2022-11-24T15:41:54.374Z,5.44
2022-11-24T15:44:25.301Z,5.40
2022-11-24T15:46:57.101Z,5.57
2022-11-24T15:49:27.805Z,5.70
2022-11-24T15:51:58.557Z,5.46
2022-11-24T15:54:29.684Z,5.46
2022-11-24T15:57:01.023Z,5.46
2022-11-24T15:59:31.810Z,5.47
2022-11-24T16:02:02.258Z,5.52
2022-11-24T16:04:35.076Z,5.66
2022-11-24T16:07:07.446Z,5.64
2022-11-24T16:09:38.477Z,5.66
2022-11-24T16:12:10.841Z,5.71
2022-11-24T16:14:43.665Z,5.67
2022-11-24T16:17:15.632Z,5.68
2022-11-24T16:19:46.151Z,5.59
2022-11-24T16:22:16.780Z,5.74
2022-11-24T16:24:47.172Z,5.61
2022-11-24T16:27:17.912Z,5.58
2022-11-24T16:29:48.308Z,5.44
2022-11-24T16:32:19.122Z,5.38
2022-11-24T16:34:49.795Z,5.37
2022-11-24T16:37:22.316Z,5.30
2022-11-24T16:39:53.503Z,5.26
2022-11-24T16:42:24.435Z,5.20
2022-11-24T16:44:57.964Z,5.19
2022-11-24T16:47:28.516Z,5.23
2022-11-24T16:50:00.095Z,5.18
2022-11-24T16:52:31.186Z,5.11
2022-11-24T16:55:03.914Z,5.10
2022-11-24T16:57:36.030Z,5.26
2022-11-24T17:00:08.235Z,5.22
2022-11-24T17:02:39.643Z,5.18
2022-11-24T17:05:10.688Z,5.20
2022-11-24T17:07:42.884Z,5.15
2022-11-24T17:10:13.409Z,5.08
2022-11-24T17:12:44.793Z,5.20
2022-11-24T17:15:32.570Z,5.16
2022-11-24T17:18:16.326Z,5.04
2022-11-24T17:20:21.428Z,5.04
2022-11-24T17:22:58.542Z,5.19
2022-11-24T17:25:29.977Z,5.11
2022-11-24T17:28:00.559Z,5.02
2022-11-24T17:30:31.366Z,5.18
2022-11-24T17:33:03.822Z,5.08
2022-11-24T17:35:35.655Z,5.12
2022-11-24T17:38:07.781Z,5.02
2022-11-24T17:40:38.375Z,4.86
2022-11-24T17:43:09.904Z,4.74
2022-11-24T17:45:42.023Z,4.60
2022-11-24T17:48:13.794Z,4.66
2022-11-24T17:50:46.527Z,4.76
2022-11-24T17:53:18.579Z,4.75
2022-11-24T17:55:50.392Z,4.68
2022-11-24T17:58:20.929Z,4.82
2022-11-24T18:00:52.926Z,4.80
2022-11-24T18:03:26.669Z,4.82
2022-11-24T18:05:57.633Z,4.92
2022-11-24T18:08:28.472Z,4.94
2022-11-24T18:11:04.230Z,4.98
2022-11-24T18:13:55.632Z,4.95
2022-11-24T18:16:10.349Z,5.00
2022-11-24T18:18:45.977Z,4.89
2022-11-24T18:21:18.280Z,4.86
2022-11-24T18:23:49.943Z,4.88
2022-11-24T18:26:22.101Z,4.73
2022-11-24T18:28:53.272Z,4.73
2022-11-24T18:31:24.666Z,4.64
2022-11-24T18:33:55.418Z,4.77
2022-11-24T18:36:30.217Z,4.62
2022-11-24T18:39:04.670Z,4.66
2022-11-24T18:41:38.739Z,4.61
2022-11-24T18:44:10.760Z,4.57
2022-11-24T18:46:45.600Z,4.62
2022-11-24T18:49:17.707Z,4.62
2022-11-24T18:51:48.306Z,4.74
2022-11-24T18:54:18.750Z,4.74
2022-11-24T18:56:49.428Z,4.80
2022-11-24T18:59:20.399Z,4.74
2022-11-24T19:01:52.189Z,4.64
2022-11-24T19:04:24.206Z,4.78
2022-11-24T19:06:57.724Z,4.74
2022-11-24T19:09:28.245Z,4.61
2022-11-24T19:12:00.056Z,4.72
2022-11-24T19:14:31.448Z,4.81
2022-11-24T19:17:04.296Z,4.78
2022-11-24T19:19:35.950Z,4.70
2022-11-24T19:22:08.100Z,4.72
2022-11-24T19:24:39.101Z,4.66
2022-11-24T19:27:11.795Z,4.68
2022-11-24T19:29:44.006Z,4.52
2022-11-24T19:32:14.732Z,4.52
2022-11-24T19:34:45.372Z,4.41
2022-11-24T19:37:16.179Z,4.32
2022-11-24T19:39:49.321Z,4.33
2022-11-24T19:42:37.198Z,4.42
2022-11-24T19:45:08.582Z,4.34
2022-11-24T19:47:40.797Z,4.32
2022-11-24T19:50:13.255Z,4.28
2022-11-24T19:52:43.772Z,4.30
2022-11-24T19:55:14.324Z,4.27
2022-11-24T19:57:45.367Z,4.22
2022-11-24T20:00:17.694Z,4.25
2022-11-24T20:02:52.378Z,4.11
2022-11-24T20:05:23.709Z,4.04
2022-11-24T20:07:54.777Z,3.98
2022-11-24T20:10:25.342Z,3.83
2022-11-24T20:12:55.768Z,3.97
2022-11-24T20:15:26.354Z,3.92
2022-11-24T20:18:00.090Z,3.97
2022-11-24T20:20:30.634Z,3.99
2022-11-24T20:23:02.729Z,3.94
2022-11-24T20:25:36.309Z,4.04
2022-11-24T20:28:07.273Z,3.94
2022-11-24T20:30:39.249Z,4.00
2022-11-24T20:33:10.019Z,3.82
2022-11-24T20:35:41.563Z,3.81
2022-11-24T20:38:13.249Z,3.67
2022-11-24T20:40:43.891Z,3.72
2022-11-24T20:43:16.587Z,3.81
2022-11-24T20:45:48.644Z,3.79
2022-11-24T20:48:19.123Z,3.75
2022-11-24T20:50:51.552Z,3.78
2022-11-24T20:53:22.571Z,3.80
2022-11-24T20:55:53.085Z,3.78
2022-11-24T20:58:23.603Z,3.80
2022-11-24T21:00:54.073Z,3.76
2022-11-24T21:03:26.412Z,3.64
2022-11-24T21:05:58.709Z,3.60
2022-11-24T21:08:32.808Z,3.62
2022-11-24T21:11:05.136Z,3.81
2022-11-24T21:13:38.327Z,3.75
2022-11-24T21:16:23.705Z,3.69
2022-11-24T21:18:57.543Z,3.79
2022-11-24T21:21:36.699Z,3.74
2022-11-24T21:24:16.252Z,3.67
2022-11-24T21:26:47.924Z,3.76
2022-11-24T21:29:23.854Z,3.67
2022-11-24T21:31:55.359Z,3.60
2022-11-24T21:34:26.083Z,3.62
2022-11-24T21:36:57.309Z,3.60
2022-11-24T21:39:28.358Z,3.64
2022-11-24T21:41:58.934Z,3.50
2022-11-24T21:44:31.421Z,3.54
2022-11-24T21:47:01.806Z,3.54
2022-11-24T21:49:32.289Z,3.47
2022-11-24T21:52:02.894Z,3.50
2022-11-24T21:54:34.928Z,3.51
2022-11-24T21:57:05.538Z,3.43
2022-11-24T21:59:37.121Z,3.47
2022-11-24T22:02:12.997Z,3.52
2022-11-24T22:04:43.421Z,3.62
2022-11-24T22:07:17.177Z,3.67
2022-11-24T22:09:49.647Z,3.84
2022-11-24T22:12:23.246Z,3.84
2022-11-24T22:14:54.139Z,3.68
2022-11-24T22:17:24.767Z,3.71
2022-11-24T22:19:58.372Z,3.76
2022-11-24T22:22:28.805Z,3.80
2022-11-24T22:25:02.369Z,3.70
2022-11-24T22:27:33.185Z,3.76
2022-11-24T22:30:06.078Z,3.72
2022-11-24T22:32:36.534Z,3.74
2022-11-24T22:35:08.271Z,3.82
2022-11-24T22:37:40.370Z,3.78
2022-11-24T22:40:12.286Z,3.76
2022-11-24T22:42:43.009Z,3.75
2022-11-24T22:45:14.679Z,3.79
2022-11-24T22:47:45.204Z,3.82
2022-11-24T22:50:15.962Z,3.82
2022-11-24T22:52:46.661Z,3.83
2022-11-24T22:55:17.371Z,3.82
2022-11-24T22:57:48.698Z,3.87
2022-11-24T23:00:19.993Z,3.96
2022-11-24T23:02:51.100Z,4.06
2022-11-24T23:05:22.505Z,4.01
2022-11-24T23:07:53.150Z,4.06
2022-11-24T23:10:23.952Z,4.08
2022-11-24T23:12:56.010Z,4.17
2022-11-24T23:15:27.834Z,4.23
2022-11-24T23:18:01.137Z,4.45
2022-11-24T23:20:32.975Z,4.39
2022-11-24T23:23:04.015Z,4.30
2022-11-24T23:25:36.148Z,4.22
2022-11-24T23:28:06.776Z,4.32
2022-11-24T23:30:38.807Z,4.20
2022-11-24T23:33:09.388Z,4.15
2022-11-24T23:35:40.055Z,4.21
2022-11-24T23:38:10.686Z,4.34
2022-11-24T23:40:41.543Z,4.42
2022-11-24T23:43:12.186Z,4.48
2022-11-24T23:45:42.653Z,4.60
2022-11-24T23:48:13.249Z,4.70
2022-11-24T23:50:43.982Z,4.64
2022-11-24T23:53:14.568Z,4.74
2022-11-24T23:55:45.064Z,4.66
2022-11-24T23:58:15.597Z,4.65
